ADDS METAR Data INFO
IDs: Format: Raw Decoded Include TAF

Data at: 0929 UTC 11 Dec 2017

PAFM 110856Z AUTO 03016KT 10SM SCT027 BKN032 M08/M11 A2951 RMK AO2 SNB24E40 SLP008 P0000 60000 T10781106 58036 FZRANO
PAFM 110832Z AUTO 03016KT 9SM -SN FEW019 SCT025 OVC032 M08/M11 A2952 RMK AO2 SNB24 P0000 FZRANO
PAFM 110756Z AUTO 03014KT 10SM SCT019 OVC025 M08/M11 A2957 RMK AO2 SLP027 T10781106 410781111 FZRANO
PAFM 110656Z AUTO 03014KT 10SM OVC023 M08/M11 A2960 RMK AO2 SLP038 T10831111 FZRANO
PAFM 110556Z AUTO 03014G21KT 10SM OVC027 M08/M12 A2962 RMK AO2 SNE07 SLP044 P0000 60000 T10831117 11083 21089 56014 FZRANO
PAFM 110542Z AUTO 04014G19KT 10SM BKN027 OVC032 M08/M12 A2963 RMK AO2 SNE07 P0000 FZRANO
PAFM 110456Z AUTO 03014KT 8SM -SN FEW027 OVC037 M08/M11 A2964 RMK AO2 SLP050 P0000 T10831111 FZRANO
PAFM 110452Z AUTO 03014KT 7SM -SN SCT027 OVC037 M08/M11 A2964 RMK AO2 P0000 FZRANO
PAFM 110356Z AUTO 03014KT 7SM -SN OVC029 M09/M11 A2966 RMK AO2 SLP058 P0000 T10891111 FZRANO
PAFM 110336Z AUTO 03013KT 5SM -SN BKN029 OVC033 M09/M12 A2967 RMK AO2 P0000 FZRANO
PAFM 110256Z AUTO 04012KT 8SM -SN OVC031 M09/M12 A2969 RMK AO2 SNB07 SLP066 P0000 60000 T10891117 55003 FZRANO
PAFM 110156Z AUTO 03013KT 10SM OVC031 M09/M12 A2968 RMK AO2 SLP064 T10891117 FZRANO
PAFM 110056Z AUTO 04012KT 10SM OVC031 M09/M12 A2970 RMK AO2 SLP070 T10891122 FZRANO
PAFM 102356Z AUTO 03014KT 10SM OVC035 M08/M12 A2969 RMK AO2 SLP070 T10831122 11083 21106 58007 FZRANO
PAFM 102256Z AUTO 03016G22KT 10SM OVC037 M09/M13 A2971 RMK AO2 PK WND 02026/2239 SLP073 T10891128 FZRANO
PAFM 102156Z AUTO 02012KT 10SM OVC035 M09/M13 A2972 RMK AO2 SLP078 T10891128 FZRANO
PAFM 102056Z AUTO 01010KT 10SM OVC035 M09/M13 A2972 RMK AO2 SLP077 T10891128 50001 FZRANO
PAFM 101956Z AUTO 35007KT 10SM OVC035 M09/M12 A2972 RMK AO2 SLP079 T10941122 FZRANO
PAFM 101856Z AUTO 03015KT 10SM OVC039 M10/M14 A2971 RMK AO2 SLP075 T11001139 FZRANO
PAFM 101756Z AUTO 03020G25KT 10SM OVC050 M11/M14 A2971 RMK AO2 SLP076 T11061139 11100 21111 58007 FZRANO
PAFM 101656Z AUTO 03020KT 10SM OVC030 M11/M14 A2973 RMK AO2 SLP082 T11111144 FZRANO
PAFM 101556Z AUTO 02012KT 10SM BKN032 M11/M14 A2975 RMK AO2 SLP088 T11061139 FZRANO
PAFM 101522Z AUTO 02012KT 10SM OVC030 M10/M13 A2975 RMK AO2 FZRANO
PAFM 101456Z AUTO 03014G21KT 10SM OVC028 M10/M14 A2974 RMK AO2 SLP083 T11001139 56015 FZRANO
PAFM 101356Z AUTO 02015KT 10SM OVC030 M11/M14 A2975 RMK AO2 SLP087 T11061139 FZRANO
PAFM 101324Z AUTO 02015G23KT 10SM OVC030 M11/M14 A2976 RMK AO2 FZRANO
PAFM 101256Z AUTO 01010KT 10SM OVC026 M11/M14 A2977 RMK AO2 SLP094 T11061139 FZRANO
PAFM 101156Z AUTO 01010G18KT 10SM OVC026 M10/M13 A2978 RMK AO2 SLP098 T11001133 11094 21106 58002 FZRANO
PAFM 101106Z AUTO 03016KT 10SM BKN024 OVC035 M11/M14 A2978 RMK AO2 FZRANO
PAFM 101056Z AUTO 03015G21KT 10SM SCT024 OVC035 M11/M14 A2978 RMK AO2 SLP099 T11061139 FZRANO
PAFM 101006Z AUTO 02013KT 10SM SCT023 M11/M14 A2979 RMK AO2 FZRANO
PAFM 100956Z AUTO 03015KT 10SM BKN023 BKN045 M11/M14 A2979 RMK AO2 SLP101 T11061139 FZRANO
PAFM 100953Z AUTO 03017KT 10SM BKN023 BKN045 M11/M14 A2979 RMK AO2 FZRANO
PAFM 100856Z AUTO 02013KT 10SM FEW028 BKN032 OVC047 M11/M13 A2980 RMK AO2 SLP104 T11061133 56006 FZRANO
PAFM 100756Z AUTO 02007KT 10SM OVC027 M09/M12 A2980 RMK AO2 SLP107 T10941122 410781094 FZRANO
PAFM 100656Z AUTO 02008KT 10SM OVC024 M09/M12 A2980 RMK AO2 SLP106 T10941122 FZRANO
PAFM 100556Z AUTO 01009KT 10SM OVC022 M09/M12 A2982 RMK AO2 SLP112 60000 T10941117 11089 21094 58009 FZRANO
PAFM 100456Z AUTO 02009KT 10SM BKN022 OVC028 M09/M12 A2983 RMK AO2 SLP117 T10941117 FZRANO
PAFM 100356Z AUTO 01008KT 10SM OVC015 M09/M11 A2984 RMK AO2 SLP120 T10941111 FZRANO
PAFM 100351Z AUTO 01007KT 10SM OVC015 M09/M11 A2985 RMK AO2 FZRANO
PAFM 100325Z AUTO 01008KT 10SM OVC013 M09/M11 A2985 RMK AO2 FZRANO
PAFM 100256Z AUTO 01009KT 8SM OVC015 M09/M11 A2985 RMK AO2 SLP122 60000 T10891111 57012 FZRANO
PAFM 100230Z AUTO 02010KT 10SM BKN015 OVC021 M09/M11 A2985 RMK AO2 FZRANO
PAFM 100156Z AUTO 36006KT 8SM OVC013 M09/M11 A2986 RMK AO2 SLP126 T10941111 FZRANO
PAFM 100056Z AUTO 01005KT 8SM OVC005 M09/M11 A2987 RMK AO2 SNE32 SLP130 P0000 T10941111 FZRANO
PAFM 100039Z AUTO 02005KT 3SM BR OVC005 M09/M10 A2987 RMK AO2 SNE32 P0000 FZRANO
PAFM 100026Z AUTO 03004KT 1 3/4SM -SN BR OVC005 M09/M09 A2987 RMK AO2 P0000 FZRANO
PAFM 100012Z AUTO 00000KT 1SM -SN BR OVC005 M09/M09 A2988 RMK AO2 P0000 FZRANO
PAFM 092356Z AUTO 00000KT 1 1/4SM -SN BR BKN007 OVC013 M09/M10 A2988 RMK AO2 SNB40 SLP134 P0000 60000 T10891100 11083 21089 55000 FZRANO
PAFM 092352Z AUTO 00000KT 1 1/2SM -SN BR SCT007 OVC013 M09/M10 A2988 RMK AO2 SNB40 P0000 FZRANO
PAFM 092256Z AUTO 03005KT 8SM SCT003 OVC011 M09/M10 A2988 RMK AO2 CIG 005V012 SLP133 T10891100 FZRANO
PAFM 092248Z AUTO 00000KT 6SM BR BKN005 OVC009 M09/M10 A2988 RMK AO2 CIG 003V007 FZRANO
PAFM 092156Z AUTO 32004KT 3SM BR OVC007 M09/M10 A2988 RMK AO2 SNB2059E12 CIG 005V010 SLP134 P0000 T10891100 FZRANO